Time;durP1;ratioP1;P1;durP2;ratioP2;P2;SDS_P1;SDS_P2;PMS_P1;PMS_P2;Temp;Humidity;BMP_temperature;BMP_pressure;BME280_temperature;BME280_humidity;BME280_pressure;Samples;Min_cycle;Max_cycle;Signal;HPM_P1;HPM_P2
2023/06/29 00:00:57;;;;;;;38.80;26.80;;;;;;;17.40;100.00;103669.28;5056263;28;20441;-74
2023/06/29 00:03:22;;;;;;;35.83;25.23;;;;;;;16.16;100.00;103459.22;5056438;28;20180;-73
2023/06/29 00:05:48;;;;;;;33.47;25.77;;;;;;;17.31;100.00;103643.22;5054897;28;20512;-73
2023/06/29 00:08:13;;;;;;;38.47;27.37;;;;;;;17.36;100.00;103654.41;5053670;28;20211;-73
2023/06/29 00:10:40;;;;;;;39.10;28.07;;;;;;;17.40;100.00;103651.16;5053602;28;20305;-74
2023/06/29 00:13:05;;;;;;;36.20;26.70;;;;;;;17.40;100.00;103643.00;5080057;28;20271;-73
2023/06/29 00:15:30;;;;;;;33.83;25.93;;;;;;;17.43;100.00;103638.25;5053369;28;24634;-73
2023/06/29 00:17:57;;;;;;;33.67;26.30;;;;;;;17.33;100.00;103619.50;5051638;28;20183;-74
2023/06/29 00:20:24;;;;;;;36.50;26.80;;;;;;;17.19;100.00;103593.94;5051985;28;20183;-73
2023/06/29 00:22:49;;;;;;;35.60;27.13;;;;;;;17.47;100.00;103629.56;5050561;28;20982;-73
2023/06/29 00:25:16;;;;;;;36.10;27.70;;;;;;;17.27;100.00;103576.75;5053339;28;20504;-73
2023/06/29 00:27:42;;;;;;;39.67;27.10;;;;;;;17.22;100.00;103582.75;5050990;28;20281;-73
2023/06/29 00:30:08;;;;;;;34.67;26.27;;;;;;;17.40;100.00;103605.03;5048931;28;20979;-74
2023/06/29 00:32:33;;;;;;;37.20;25.73;;;;;;;17.32;100.00;103586.06;5052038;28;20721;-73
2023/06/29 00:34:59;;;;;;;36.00;26.93;;;;;;;17.01;100.00;103534.53;5053119;28;20613;-73
2023/06/29 00:37:24;;;;;;;36.20;26.30;;;;;;;17.47;100.00;103607.03;5055738;28;20189;-73
2023/06/29 00:39:50;;;;;;;37.87;24.70;;;;;;;17.29;100.00;103581.00;5051920;28;20660;-74
2023/06/29 00:42:15;;;;;;;31.80;25.80;;;;;;;17.44;100.00;103602.78;5052794;28;20221;-73
2023/06/29 00:44:40;;;;;;;39.10;29.27;;;;;;;17.34;100.00;103575.06;5054684;28;20241;-73
2023/06/29 00:47:07;;;;;;;37.30;26.80;;;;;;;17.44;100.00;103583.78;5052794;28;20336;-73
2023/06/29 00:49:33;;;;;;;41.00;27.50;;;;;;;17.45;100.00;103580.09;5054553;28;20179;-74
2023/06/29 00:51:59;;;;;;;40.03;29.17;;;;;;;17.44;100.00;103563.97;5053170;28;20461;-74
2023/06/29 00:54:25;;;;;;;38.10;25.97;;;;;;;17.02;100.00;103486.56;5053406;28;20651;-73
2023/06/29 00:56:52;;;;;;;34.90;26.57;;;;;;;16.57;100.00;103426.59;5052554;28;20441;-74
2023/06/29 00:59:17;;;;;;;40.47;27.90;;;;;;;17.48;100.00;103546.31;5053942;28;20437;-73
2023/06/29 01:01:45;;;;;;;37.47;27.67;;;;;;;17.08;100.00;103488.56;5052718;28;20441;-74
2023/06/29 01:04:22;;;;;;;40.93;27.93;;;;;;;17.01;100.00;103464.03;5055577;28;20530;-74
2023/06/29 01:06:57;;;;;;;42.97;29.47;;;;;;;17.45;100.00;103498.69;5053856;28;20473;-73
2023/06/29 01:09:23;;;;;;;36.63;26.17;;;;;;;16.68;100.00;103395.56;5053857;28;20440;-73
2023/06/29 01:11:51;;;;;;;38.77;27.40;;;;;;;17.50;100.00;103525.25;5046809;28;20465;-74
2023/06/29 01:14:18;;;;;;;40.80;27.90;;;;;;;16.66;100.00;103386.75;5052263;28;20469;-74
2023/06/29 01:16:43;;;;;;;43.90;29.10;;;;;;;17.42;100.00;103509.06;5052283;28;20442;-74
2023/06/29 01:19:17;;;;;;;31.30;25.87;;;;;;;17.39;100.00;103497.53;5051886;28;20491;-74
2023/06/29 01:21:54;;;;;;;36.73;27.10;;;;;;;17.44;100.00;103502.41;5051437;28;20208;-74
2023/06/29 01:24:24;;;;;;;48.70;27.73;;;;;;;17.42;100.00;103493.63;5046331;28;20567;-74
2023/06/29 01:26:50;;;;;;;35.53;26.93;;;;;;;17.24;100.00;103460.50;5048156;28;20474;-72
2023/06/29 01:29:24;;;;;;;39.27;26.90;;;;;;;17.41;100.00;103489.19;5049727;28;20498;-73
2023/06/29 01:31:50;;;;;;;40.37;27.40;;;;;;;17.34;100.00;103467.38;5047926;28;20215;-73
2023/06/29 01:34:15;;;;;;;42.80;28.87;;;;;;;16.87;100.00;103386.19;5050442;28;20455;-73
2023/06/29 01:36:44;;;;;;;39.50;26.90;;;;;;;17.20;100.00;103437.47;5048505;28;20693;-73
2023/06/29 01:39:19;;;;;;;43.57;29.57;;;;;;;17.39;100.00;103464.97;5049609;28;20187;-73
2023/06/29 01:41:46;;;;;;;40.77;28.60;;;;;;;17.38;100.00;103462.44;5047897;28;21154;-73
2023/06/29 01:44:15;;;;;;;43.03;28.53;;;;;;;17.35;100.00;103454.66;5082844;27;20718;-73
2023/06/29 01:46:41;;;;;;;46.20;30.37;;;;;;;16.14;100.00;103306.94;5052930;28;20449;-73
2023/06/29 01:49:07;;;;;;;46.67;28.83;;;;;;;16.98;100.00;103393.03;5054526;28;20442;-73
2023/06/29 01:51:32;;;;;;;35.43;28.57;;;;;;;17.32;100.00;103461.28;5050119;28;20294;-73
2023/06/29 01:53:58;;;;;;;41.67;31.03;;;;;;;17.06;100.00;103410.09;5052317;28;20844;-73
2023/06/29 01:56:23;;;;;;;31.33;23.70;;;;;;;16.54;100.00;103310.44;5049817;28;20183;-73
2023/06/29 01:58:49;;;;;;;41.43;29.30;;;;;;;17.34;100.00;103445.66;5051305;28;20217;-73
2023/06/29 02:01:14;;;;;;;36.70;29.20;;;;;;;17.48;100.00;103464.91;5049106;28;20737;-73
2023/06/29 02:03:40;;;;;;;40.47;29.37;;;;;;;16.64;100.00;103350.88;5053271;28;20211;-73
2023/06/29 02:06:05;;;;;;;35.80;28.67;;;;;;;17.43;100.00;103454.59;5051072;28;20683;-73
2023/06/29 02:08:31;;;;;;;44.27;27.87;;;;;;;16.52;100.00;103288.13;5054646;28;20295;-73
2023/06/29 02:10:56;;;;;;;34.60;27.13;;;;;;;17.48;100.00;103448.63;5052930;28;20199;-73
2023/06/29 02:13:22;;;;;;;40.00;26.83;;;;;;;16.17;100.00;103259.69;5051466;28;20195;-73
2023/06/29 02:15:47;;;;;;;39.30;28.97;;;;;;;16.17;100.00;103248.84;5051009;28;20187;-73
2023/06/29 02:18:12;;;;;;;47.87;27.90;;;;;;;17.31;100.00;103431.63;5052092;28;20187;-73
2023/06/29 02:20:38;;;;;;;37.67;28.10;;;;;;;17.37;100.00;103449.91;5052653;28;20205;-73
2023/06/29 02:23:03;;;;;;;45.20;29.30;;;;;;;17.21;100.00;103422.88;5051654;28;20656;-73
2023/06/29 02:25:29;;;;;;;41.23;29.80;;;;;;;17.17;100.00;103431.38;5052162;28;20192;-73
2023/06/29 02:27:54;;;;;;;45.40;28.70;;;;;;;17.32;100.00;103447.72;5048942;28;20210;-73
2023/06/29 02:30:19;;;;;;;44.93;30.10;;;;;;;15.65;100.00;103168.22;5050043;28;20184;-73
2023/06/29 02:32:45;;;;;;;38.83;29.57;;;;;;;17.04;100.00;103384.19;5048265;28;20191;-73
2023/06/29 02:35:10;;;;;;;43.00;30.07;;;;;;;16.79;100.00;103350.97;5050567;28;20187;-73
2023/06/29 02:37:36;;;;;;;49.60;31.27;;;;;;;17.31;100.00;103434.34;5056944;28;20271;-72
2023/06/29 02:40:01;;;;;;;39.77;30.33;;;;;;;15.92;100.00;103173.22;5053973;28;20271;-73
2023/06/29 02:42:27;;;;;;;44.90;30.70;;;;;;;17.30;100.00;103428.09;5052659;28;20202;-73
2023/06/29 02:44:53;;;;;;;43.03;30.97;;;;;;;16.77;100.00;103329.47;5054723;28;20178;-72
2023/06/29 02:47:18;;;;;;;42.80;31.83;;;;;;;17.26;100.00;103404.19;5055277;28;20470;-73
2023/06/29 02:49:43;;;;;;;44.20;31.27;;;;;;;17.10;100.00;103373.47;5050684;28;20184;-73
2023/06/29 02:52:09;;;;;;;40.70;30.70;;;;;;;17.30;100.00;103394.66;5052040;28;20222;-73
2023/06/29 02:54:34;;;;;;;37.60;29.90;;;;;;;17.36;100.00;103404.81;5056598;28;20201;-73
2023/06/29 02:57:00;;;;;;;44.17;30.80;;;;;;;17.40;100.00;103406.97;5055939;28;20580;-73
2023/06/29 02:59:25;;;;;;;41.67;30.03;;;;;;;16.97;100.00;103326.28;5058345;28;20338;-73
2023/06/29 03:01:50;;;;;;;43.70;31.37;;;;;;;17.12;100.00;103355.13;5056246;28;20195;-73
2023/06/29 03:04:16;;;;;;;44.23;31.30;;;;;;;17.46;100.00;103401.84;5053845;28;20211;-73
2023/06/29 03:06:41;;;;;;;37.97;29.87;;;;;;;17.25;100.00;103359.97;5058871;28;20254;-73
2023/06/29 03:09:07;;;;;;;50.40;30.77;;;;;;;17.44;100.00;103388.44;5057175;28;20183;-73
2023/06/29 03:11:32;;;;;;;50.20;30.60;;;;;;;17.12;100.00;103336.16;5056019;28;20204;-73
2023/06/29 03:13:57;;;;;;;37.67;29.10;;;;;;;16.34;100.00;103215.25;5054605;28;20237;-73
2023/06/29 03:16:23;;;;;;;38.20;29.47;;;;;;;17.26;100.00;103342.66;5057688;28;20258;-73
2023/06/29 03:18:48;;;;;;;43.20;31.93;;;;;;;16.95;100.00;103285.78;5056562;28;20184;-73
2023/06/29 03:21:19;;;;;;;38.50;30.73;;;;;;;17.44;100.00;103380.31;5054104;28;20211;-73
2023/06/29 03:23:45;;;;;;;38.80;30.10;;;;;;;16.91;100.00;103279.06;5055873;28;20688;-73
2023/06/29 03:26:12;;;;;;;39.53;30.23;;;;;;;17.47;100.00;103363.66;5057635;28;20453;-73
2023/06/29 03:28:37;;;;;;;41.80;31.00;;;;;;;17.49;100.00;103344.50;5053427;28;20470;-73
2023/06/29 03:31:03;;;;;;;38.23;29.80;;;;;;;17.11;100.00;103287.53;5055710;28;20450;-73
2023/06/29 03:33:28;;;;;;;42.33;29.23;;;;;;;17.50;100.00;103352.47;5056946;28;20192;-73
2023/06/29 03:35:53;;;;;;;38.10;31.13;;;;;;;16.56;100.00;103205.44;5054597;28;20220;-73
2023/06/29 03:38:19;;;;;;;42.10;28.50;;;;;;;17.12;100.00;103278.38;5057113;28;20563;-73
2023/06/29 03:40:44;;;;;;;37.30;28.20;;;;;;;17.19;100.00;103271.19;5057375;28;20200;-73
2023/06/29 03:43:09;;;;;;;40.33;30.20;;;;;;;17.42;100.00;103306.41;5057357;28;21144;-73
2023/06/29 03:45:35;;;;;;;41.13;28.97;;;;;;;16.13;100.00;103095.94;5059452;28;20189;-73
2023/06/29 03:48:00;;;;;;;40.97;29.70;;;;;;;16.88;100.00;103204.38;5055909;28;20194;-72
2023/06/29 03:50:26;;;;;;;37.20;28.47;;;;;;;16.77;100.00;103172.28;5053252;28;20534;-73
2023/06/29 03:52:51;;;;;;;42.97;29.13;;;;;;;17.20;100.00;103243.03;5053066;28;20179;-73
2023/06/29 03:55:17;;;;;;;45.00;30.00;;;;;;;16.80;100.00;103155.63;5055692;28;20192;-73
2023/06/29 03:57:43;;;;;;;42.30;30.23;;;;;;;16.60;100.00;103119.22;5052596;28;20266;-73
2023/06/29 04:00:08;;;;;;;39.43;29.27;;;;;;;17.44;100.00;103251.94;5054376;28;20813;-73
2023/06/29 04:02:34;;;;;;;43.80;29.87;;;;;;;16.75;100.00;103133.66;5050998;28;20207;-73
2023/06/29 04:04:59;;;;;;;38.83;29.40;;;;;;;16.82;100.00;103142.75;5054710;28;20268;-73
2023/06/29 04:07:25;;;;;;;39.70;28.30;;;;;;;17.09;100.00;103192.81;5053132;28;20682;-73
2023/06/29 04:09:50;;;;;;;36.77;27.73;;;;;;;17.60;100.00;103268.91;5053363;28;20261;-73
2023/06/29 04:12:15;;;;;;;41.27;27.47;;;;;;;17.59;100.00;103269.94;5056330;28;20678;-73
2023/06/29 04:14:41;;;;;;;34.90;27.20;;;;;;;17.61;100.00;103258.88;5055715;28;20190;-73
2023/06/29 04:17:06;;;;;;;40.67;27.63;;;;;;;16.30;100.00;103037.91;5056681;28;20250;-73
2023/06/29 04:19:31;;;;;;;38.33;26.50;;;;;;;17.60;100.00;103254.50;5055875;28;20668;-73
2023/06/29 04:21:57;;;;;;;35.73;28.03;;;;;;;17.49;100.00;103227.81;5055542;28;20289;-73
2023/06/29 04:24:22;;;;;;;40.00;28.10;;;;;;;16.43;100.00;103042.69;5057159;28;20250;-73
2023/06/29 04:26:48;;;;;;;46.20;28.20;;;;;;;16.72;100.00;103129.44;5052708;28;20187;-73
2023/06/29 04:29:14;;;;;;;40.33;27.17;;;;;;;17.58;100.00;103232.13;5054624;28;20183;-73
2023/06/29 04:31:39;;;;;;;38.47;28.63;;;;;;;17.62;100.00;103234.28;5049391;28;20204;-73
2023/06/29 04:34:04;;;;;;;39.33;27.93;;;;;;;16.49;100.00;103060.94;5052275;28;20538;-73
2023/06/29 04:36:30;;;;;;;32.87;25.67;;;;;;;17.55;100.00;103189.09;5054026;28;20669;-73
2023/06/29 04:38:56;;;;;;;31.93;25.30;;;;;;;17.66;100.00;103210.31;5051768;28;20202;-73
2023/06/29 04:41:30;;;;;;;34.10;23.97;;;;;;;17.46;100.00;103166.63;5046967;28;20204;-73
2023/06/29 04:43:57;;;;;;;38.40;26.90;;;;;;;17.73;100.00;103191.41;5047944;28;20167;-73
2023/06/29 04:46:23;;;;;;;39.83;25.73;;;;;;;17.76;100.00;103182.88;5049368;28;20437;-73
2023/06/29 04:48:49;;;;;;;30.07;25.67;;;;;;;17.75;100.00;103168.47;5047243;28;20478;-72
2023/06/29 04:51:15;;;;;;;35.10;26.20;;;;;;;16.64;100.00;102968.81;5046807;28;20211;-73
2023/06/29 04:53:41;;;;;;;39.80;26.17;;;;;;;17.83;100.00;103181.97;5050095;28;20437;-74
2023/06/29 04:56:07;;;;;;;32.50;25.90;;;;;;;17.38;100.00;103058.22;5051748;28;20445;-74
2023/06/29 04:58:32;;;;;;;38.13;25.87;;;;;;;17.87;100.00;103108.28;5052331;28;20471;-74
2023/06/29 05:00:58;;;;;;;29.43;25.07;;;;;;;17.72;100.00;103097.44;5052927;28;21171;-74
2023/06/29 05:03:24;;;;;;;29.20;23.30;;;;;;;17.94;100.00;103118.19;5054065;28;20186;-74
2023/06/29 05:05:50;;;;;;;32.37;24.47;;;;;;;17.94;100.00;103112.75;5055107;28;20266;-74
2023/06/29 05:08:15;;;;;;;34.20;24.27;;;;;;;17.94;100.00;103101.06;5052297;28;20526;-73
2023/06/29 05:10:41;;;;;;;33.40;25.23;;;;;;;17.95;100.00;103071.00;5049524;28;20283;-74
2023/06/29 05:13:06;;;;;;;33.30;23.80;;;;;;;18.01;100.00;103088.38;5053120;28;20572;-73
2023/06/29 05:15:32;;;;;;;30.13;25.17;;;;;;;17.66;100.00;103023.06;5050140;28;20183;-74
2023/06/29 05:17:57;;;;;;;36.10;26.53;;;;;;;17.71;100.00;103031.47;5083512;28;20330;-73
2023/06/29 05:20:23;;;;;;;37.20;25.43;;;;;;;17.37;100.00;102972.47;5053846;28;20247;-73
2023/06/29 05:22:48;;;;;;;31.17;24.90;;;;;;;18.07;100.00;103064.00;5051882;28;20175;-74
2023/06/29 05:25:14;;;;;;;37.50;26.00;;;;;;;18.12;100.00;103055.28;5054129;28;20656;-73
2023/06/29 05:27:41;;;;;;;33.73;25.20;;;;;;;18.15;100.00;103051.34;5050720;28;20196;-74
2023/06/29 05:30:08;;;;;;;34.10;26.13;;;;;;;17.49;100.00;102934.81;5050284;28;20486;-74
2023/06/29 05:32:34;;;;;;;29.60;24.87;;;;;;;18.01;100.00;103001.50;5048666;28;21124;-72
2023/06/29 05:35:00;;;;;;;38.87;25.57;;;;;;;18.20;100.00;103010.84;5051434;28;20477;-73
2023/06/29 05:37:26;;;;;;;33.60;24.13;;;;;;;18.17;100.00;103003.94;5054337;28;20984;-73
2023/06/29 05:39:51;;;;;;;37.43;23.87;;;;;;;18.33;100.00;103019.09;5052602;28;20176;-73
2023/06/29 05:42:16;;;;;;;29.87;24.33;;;;;;;18.19;100.00;102984.72;5053773;28;20206;-74
2023/06/29 05:44:42;;;;;;;29.43;24.33;;;;;;;18.33;100.00;103002.78;5086041;28;20198;-73
2023/06/29 05:47:07;;;;;;;30.37;25.40;;;;;;;17.37;100.00;102845.81;5054734;28;20883;-73
2023/06/29 05:49:33;;;;;;;32.50;25.30;;;;;;;18.41;100.00;102994.50;5048895;28;20183;-73
2023/06/29 05:51:58;;;;;;;36.63;24.73;;;;;;;17.66;100.00;102876.50;5050679;28;20260;-73
2023/06/29 05:54:23;;;;;;;35.63;24.10;;;;;;;18.46;100.00;102945.81;5049226;28;20261;-73
2023/06/29 05:56:49;;;;;;;29.33;23.70;;;;;;;17.58;100.00;102846.81;5050664;28;20192;-73
2023/06/29 05:59:14;;;;;;;33.13;22.30;;;;;;;18.47;100.00;102971.94;5050565;28;20188;-73
2023/06/29 06:01:40;;;;;;;32.30;23.27;;;;;;;18.30;100.00;102927.13;5052461;28;20199;-73
2023/06/29 06:04:05;;;;;;;29.03;23.77;;;;;;;17.90;100.00;102852.69;5051662;28;20201;-73
2023/06/29 06:06:31;;;;;;;34.67;24.30;;;;;;;18.46;100.00;102945.81;5052369;28;20183;-73
2023/06/29 06:08:57;;;;;;;35.30;24.47;;;;;;;18.49;100.00;102941.88;5052098;28;20915;-73
2023/06/29 06:11:23;;;;;;;28.63;23.60;;;;;;;18.49;100.00;102941.88;5053276;28;20457;-73
2023/06/29 06:13:49;;;;;;;31.47;24.10;;;;;;;18.29;100.00;102909.16;5081944;28;21032;-73
2023/06/29 06:16:18;;;;;;;30.00;22.43;;;;;;;18.44;100.00;102907.13;5047824;28;20449;-74
2023/06/29 06:18:43;;;;;;;30.90;24.40;;;;;;;17.67;100.00;102801.38;5052181;28;20239;-73
2023/06/29 06:21:08;;;;;;;29.77;24.87;;;;;;;18.46;100.00;102928.69;5050675;28;20450;-73
2023/06/29 06:23:34;;;;;;;34.40;22.93;;;;;;;18.32;100.00;102895.16;5050415;28;20553;-73
2023/06/29 06:25:59;;;;;;;31.50;24.40;;;;;;;18.41;100.00;102898.56;5051874;28;20207;-73
2023/06/29 06:28:25;;;;;;;30.83;24.33;;;;;;;17.74;100.00;102777.84;5053357;28;20200;-73
2023/06/29 06:30:51;;;;;;;35.60;25.83;;;;;;;18.45;100.00;102914.25;5052762;28;20707;-73
2023/06/29 06:33:16;;;;;;;38.80;25.80;;;;;;;18.26;100.00;102875.06;5053113;28;20446;-73
2023/06/29 06:35:42;;;;;;;30.80;24.77;;;;;;;18.14;100.00;102846.81;5054889;28;20859;-73
2023/06/29 06:38:08;;;;;;;33.20;24.47;;;;;;;18.42;100.00;102881.22;5053993;28;20175;-73
2023/06/29 06:40:33;;;;;;;32.30;24.00;;;;;;;18.16;100.00;102828.41;5055752;28;20952;-73
2023/06/29 06:42:59;;;;;;;35.80;24.77;;;;;;;18.09;100.00;102802.28;5055191;28;20182;-73
2023/06/29 06:45:24;;;;;;;31.50;24.00;;;;;;;18.60;100.00;102870.66;5054603;28;20266;-73
2023/06/29 06:47:49;;;;;;;32.40;25.00;;;;;;;18.79;100.00;102884.53;5054721;28;20687;-72
2023/06/29 06:50:15;;;;;;;33.73;24.13;;;;;;;18.55;100.00;102842.41;5054386;28;20183;-73
2023/06/29 06:52:40;;;;;;;30.60;25.10;;;;;;;18.58;100.00;102853.69;5054624;28;20176;-72
2023/06/29 06:55:06;;;;;;;28.70;23.77;;;;;;;18.92;100.00;102857.41;5051526;28;20652;-72
2023/06/29 06:57:32;;;;;;;33.07;24.73;;;;;;;19.15;100.00;102878.75;5058251;28;20187;-73
2023/06/29 06:59:58;;;;;;;31.60;25.00;;;;;;;19.22;100.00;102866.03;5060840;28;20510;-72
2023/06/29 07:02:23;;;;;;;29.53;23.60;;;;;;;18.77;100.00;102786.03;5056907;28;20198;-72
2023/06/29 07:04:48;;;;;;;37.10;25.33;;;;;;;18.50;100.00;102716.13;5055630;28;20252;-72
2023/06/29 07:07:14;;;;;;;33.50;23.63;;;;;;;19.42;100.00;102855.16;5059815;28;20767;-72
2023/06/29 07:09:39;;;;;;;33.23;23.67;;;;;;;19.14;100.00;102787.31;5058979;28;20180;-73
2023/06/29 07:12:05;;;;;;;33.30;23.57;;;;;;;19.47;100.00;102835.47;5055955;28;20214;-73
2023/06/29 07:14:31;;;;;;;37.17;24.80;;;;;;;19.18;100.00;102826.69;5055392;28;20179;-73
2023/06/29 07:16:57;;;;;;;32.70;24.10;;;;;;;19.55;100.00;102833.34;5056432;28;20271;-73
2023/06/29 07:19:23;;;;;;;34.93;24.07;;;;;;;19.57;100.00;102827.72;5056139;28;20575;-73
2023/06/29 07:21:48;;;;;;;31.00;23.83;;;;;;;19.43;100.00;102813.28;5088791;28;20198;-72
2023/06/29 07:24:14;;;;;;;31.10;23.40;;;;;;;18.76;100.00;102697.38;5058319;28;20766;-72
2023/06/29 07:26:40;;;;;;;33.27;24.87;;;;;;;19.46;100.00;102803.84;5059176;28;20192;-72
2023/06/29 07:29:06;;;;;;;35.63;24.10;;;;;;;18.35;100.00;102644.00;5057465;28;20230;-73
2023/06/29 07:31:32;;;;;;;30.50;22.83;;;;;;;19.39;100.00;102790.25;5090544;28;20453;-72
2023/06/29 07:33:57;;;;;;;33.80;24.00;;;;;;;19.02;100.00;102727.28;5058562;28;20444;-72
2023/06/29 07:36:25;;;;;;;29.13;22.83;;;;;;;19.36;100.00;102777.91;5058375;28;20303;-72
2023/06/29 07:38:52;;;;;;;31.37;24.37;;;;;;;19.26;100.00;102758.44;5055532;28;20194;-72
2023/06/29 07:41:18;;;;;;;32.20;24.00;;;;;;;18.63;100.00;102639.22;5058200;28;20444;-72
2023/06/29 07:43:48;;;;;;;31.03;23.10;;;;;;;18.19;100.00;102589.00;5058587;28;20432;-74
2023/06/29 07:46:14;;;;;;;31.87;24.20;;;;;;;18.17;100.00;102577.53;5058033;28;20469;-72
2023/06/29 07:48:39;;;;;;;31.47;22.70;;;;;;;19.31;100.00;102757.81;5055610;28;20496;-73
2023/06/29 07:51:05;;;;;;;30.67;23.13;;;;;;;18.94;100.00;102687.53;5063784;28;20218;-72
2023/06/29 07:53:31;;;;;;;32.33;24.60;;;;;;;18.56;100.00;102629.38;5054370;28;20184;-73
2023/06/29 07:56:00;;;;;;;33.60;25.50;;;;;;;19.39;100.00;102744.84;5052972;28;20434;-73
2023/06/29 07:58:28;;;;;;;35.73;25.33;;;;;;;19.15;100.00;102702.81;5061975;28;20444;-72
2023/06/29 08:00:55;;;;;;;28.70;23.93;;;;;;;18.95;100.00;102670.19;5055338;28;20484;-72
2023/06/29 08:03:21;;;;;;;27.43;22.77;;;;;;;19.25;100.00;102715.16;5056056;28;20982;-72
2023/06/29 08:05:46;;;;;;;28.50;22.63;;;;;;;18.94;100.00;102648.63;5056818;28;20946;-72
2023/06/29 08:08:12;;;;;;;31.00;23.60;;;;;;;18.57;100.00;102590.28;5056228;28;20504;-72
2023/06/29 08:10:38;;;;;;;29.10;21.17;;;;;;;19.09;100.00;102679.19;5054342;28;20283;-73
2023/06/29 08:13:03;;;;;;;32.63;21.53;;;;;;;19.30;100.00;102709.91;5053861;28;20223;-73
2023/06/29 08:15:29;;;;;;;29.60;23.07;;;;;;;18.26;100.00;102527.41;5054279;28;20673;-72
2023/06/29 08:17:54;;;;;;;34.80;23.53;;;;;;;19.27;100.00;102681.25;5054749;28;20184;-73
2023/06/29 08:20:19;;;;;;;32.00;24.37;;;;;;;19.35;100.00;102701.94;5057507;28;20195;-72
2023/06/29 08:22:47;;;;;;;30.20;21.73;;;;;;;19.20;100.00;102681.22;5057033;28;20270;-72
2023/06/29 08:25:12;;;;;;;33.13;24.30;;;;;;;19.31;100.00;102687.91;5055833;28;20682;-72
2023/06/29 08:27:39;;;;;;;29.70;23.77;;;;;;;19.29;100.00;102687.28;5057810;28;20466;-72
2023/06/29 08:30:05;;;;;;;30.70;22.90;;;;;;;19.18;100.00;102664.31;5053920;28;20249;-72
2023/06/29 08:32:30;;;;;;;32.53;24.67;;;;;;;19.14;100.00;102649.44;5056781;28;20859;-72
2023/06/29 08:34:56;;;;;;;31.37;23.80;;;;;;;19.22;100.00;102664.72;5055598;28;20457;-72
2023/06/29 08:37:21;;;;;;;40.67;25.00;;;;;;;19.09;100.00;102646.53;5056543;28;20655;-73
2023/06/29 08:39:47;;;;;;;30.67;23.37;;;;;;;19.19;100.00;102660.53;5056744;28;20648;-73
2023/06/29 08:42:12;;;;;;;38.57;27.07;;;;;;;18.69;100.00;102577.75;5056425;28;20211;-73
2023/06/29 08:44:38;;;;;;;35.27;27.57;;;;;;;19.36;100.00;102660.09;5065055;28;20187;-72
2023/06/29 08:47:05;;;;;;;28.47;23.67;;;;;;;19.39;100.00;102670.53;5053026;28;20212;-73
2023/06/29 08:49:38;;;;;;;33.23;25.23;;;;;;;19.11;100.00;102619.13;5053946;28;20741;-73
2023/06/29 08:52:04;;;;;;;29.57;25.67;;;;;;;19.42;100.00;102676.38;5069041;28;20866;-72
2023/06/29 08:54:31;;;;;;;31.27;25.23;;;;;;;19.08;100.00;102608.66;5054083;28;20467;-72
2023/06/29 08:57:00;;;;;;;38.37;26.10;;;;;;;19.44;100.00;102673.47;5056224;28;20421;-73
2023/06/29 08:59:27;;;;;;;40.60;26.80;;;;;;;19.46;100.00;102674.06;5055677;28;20451;-73
2023/06/29 09:01:53;;;;;;;31.80;26.03;;;;;;;19.48;100.00;102671.97;5056366;28;20485;-72
2023/06/29 09:04:18;;;;;;;35.60;27.70;;;;;;;19.16;100.00;102622.88;5053454;28;20948;-73
2023/06/29 09:06:44;;;;;;;37.47;26.93;;;;;;;19.17;100.00;102602.78;5053388;28;20188;-73
2023/06/29 09:09:09;;;;;;;33.03;25.70;;;;;;;19.26;100.00;102614.25;5053822;28;20225;-72
2023/06/29 09:11:36;;;;;;;32.00;25.90;;;;;;;19.66;100.00;102663.16;5054227;28;20208;-72
2023/06/29 09:14:07;;;;;;;36.57;27.10;;;;;;;18.50;100.00;102481.59;5053394;28;20186;-72
2023/06/29 09:16:34;;;;;;;33.33;27.20;;;;;;;19.34;100.00;102589.53;5054069;28;20537;-72
2023/06/29 09:19:00;;;;;;;36.33;25.23;;;;;;;19.38;100.00;102600.81;5054797;28;20975;-72
2023/06/29 09:21:28;;;;;;;39.73;27.27;;;;;;;19.68;100.00;102635.72;5052683;28;21459;-72
2023/06/29 09:23:57;;;;;;;31.80;24.47;;;;;;;19.81;100.00;102651.97;5055619;28;20446;-73
2023/06/29 09:26:26;;;;;;;37.63;26.27;;;;;;;19.84;100.00;102638.75;5053953;28;20530;-72
2023/06/29 09:28:57;;;;;;;31.93;26.40;;;;;;;19.15;100.00;102550.50;5054906;28;20466;-73
2023/06/29 09:31:23;;;;;;;30.97;24.83;;;;;;;18.70;100.00;102432.66;5053337;28;21206;-73
2023/06/29 09:33:48;;;;;;;29.97;25.27;;;;;;;19.31;100.00;102532.00;5055047;28;20538;-73
2023/06/29 09:36:13;;;;;;;39.10;25.53;;;;;;;19.40;100.00;102539.69;5054254;28;20248;-72
2023/06/29 09:38:39;;;;;;;33.00;24.80;;;;;;;19.85;100.00;102604.22;5052477;28;20183;-73
2023/06/29 09:41:07;;;;;;;30.90;24.23;;;;;;;19.83;100.00;102601.69;5052739;28;20227;-72
2023/06/29 09:43:32;;;;;;;38.87;26.93;;;;;;;19.45;100.00;102530.06;5054185;28;20441;-74
2023/06/29 09:46:06;;;;;;;32.60;25.10;;;;;;;19.56;100.00;102560.16;5052582;28;20821;-73
2023/06/29 09:48:32;;;;;;;30.00;25.37;;;;;;;19.81;100.00;102600.25;5054820;28;20729;-73
2023/06/29 09:50:57;;;;;;;33.50;25.60;;;;;;;19.84;100.00;102595.19;5054008;28;20533;-75
2023/06/29 09:53:31;;;;;;;33.50;25.40;;;;;;;19.89;100.00;102586.38;5057406;28;20251;-72
2023/06/29 09:56:01;;;;;;;35.13;26.70;;;;;;;20.03;100.00;102554.47;5048616;28;20190;-73
2023/06/29 09:58:30;;;;;;;34.30;26.50;;;;;;;20.12;100.00;102585.81;5062650;28;20980;-72
2023/06/29 10:00:59;;;;;;;35.13;26.83;;;;;;;20.24;100.00;102591.38;5050921;28;20576;-72
2023/06/29 10:03:31;;;;;;;36.23;28.20;;;;;;;20.19;100.00;102588.47;5048303;28;20448;-73
2023/06/29 10:06:03;;;;;;;31.10;24.90;;;;;;;19.51;100.00;102463.88;5066366;28;20460;-72
2023/06/29 10:08:32;;;;;;;34.50;27.33;;;;;;;20.12;100.00;102553.13;5052524;28;20841;-73
2023/06/29 10:11:01;;;;;;;37.50;27.10;;;;;;;19.80;100.00;102466.00;5049791;28;20461;-73
2023/06/29 10:13:28;;;;;;;35.93;28.00;;;;;;;20.11;100.00;102509.78;5055130;28;20528;-72
2023/06/29 10:15:55;;;;;;;36.03;27.57;;;;;;;19.65;100.00;102443.72;5082381;28;20455;-73
2023/06/29 10:18:29;;;;;;;35.57;27.27;;;;;;;20.13;100.00;102507.66;5049128;28;20433;-73
2023/06/29 10:20:55;;;;;;;41.07;27.80;;;;;;;20.09;100.00;102502.66;5049497;28;20539;-73
2023/06/29 10:23:22;;;;;;;32.13;27.40;;;;;;;20.37;100.00;102506.81;5049542;28;20486;-73
2023/06/29 10:25:49;;;;;;;41.10;29.57;;;;;;;19.86;100.00;102443.34;5053001;28;20465;-75
2023/06/29 10:28:17;;;;;;;36.47;27.80;;;;;;;20.17;100.00;102489.81;5050894;28;20552;-74
2023/06/29 10:30:47;;;;;;;43.00;28.50;;;;;;;20.34;100.00;102493.66;5050673;28;20477;-73
2023/06/29 10:33:20;;;;;;;38.37;28.60;;;;;;;20.24;100.00;102476.97;5052521;28;20453;-74
2023/06/29 10:35:57;;;;;;;35.93;29.10;;;;;;;20.59;100.00;102522.78;5052758;28;20965;-74
2023/06/29 10:38:30;;;;;;;46.13;29.03;;;;;;;20.70;100.00;102522.03;5052662;28;20437;-75
2023/06/29 10:40:55;;;;;;;38.03;29.97;;;;;;;20.52;100.00;102488.25;5055800;28;20930;-73
2023/06/29 10:43:21;;;;;;;38.50;29.73;;;;;;;20.72;100.00;102511.75;5052117;28;20532;-74
2023/06/29 10:45:46;;;;;;;35.57;28.53;;;;;;;20.05;100.00;102424.34;5053094;28;20678;-74
2023/06/29 10:48:17;;;;;;;43.83;29.60;;;;;;;20.79;100.00;102509.78;5052239;28;20254;-73
2023/06/29 10:50:47;;;;;;;43.33;31.03;;;;;;;20.69;100.00;102495.84;5051399;28;20207;-73
2023/06/29 10:53:14;;;;;;;40.70;30.60;;;;;;;20.61;100.00;102483.34;5050839;28;20472;-73
2023/06/29 10:55:42;;;;;;;37.13;29.83;;;;;;;20.60;100.00;102484.41;5051951;28;21017;-76
2023/06/29 10:58:23;;;;;;;36.30;29.43;;;;;;;20.68;100.00;102477.81;5052661;28;20475;-74